Time;durP1;ratioP1;P1;durP2;ratioP2;P2;SDS_P1;SDS_P2;PMS_P1;PMS_P2;Temp;Humidity;BMP_temperature;BMP_pressure;BME280_temperature;BME280_humidity;BME280_pressure;Samples;Min_cycle;Max_cycle;Signal;HPM_P1;HPM_P2
2022/04/10 00:04:59;;;;;;;14.52;8.27;;;;;;;;;;10435152;28;20053;-68
2022/04/10 00:10:02;;;;;;;15.05;7.32;;;;;;;;;;10435019;28;20068;-68
2022/04/10 00:15:06;;;;;;;11.55;6.80;;;;;;;;;;10434937;28;20320;-68
2022/04/10 00:20:11;;;;;;;11.82;6.80;;;;;;;;;;10434851;28;20041;-67
2022/04/10 00:25:16;;;;;;;13.43;7.90;;;;;;;;;;10433733;28;20042;-68
2022/04/10 00:30:19;;;;;;;;;;;;;;;;;;10423449;28;20065;-66
2022/04/10 00:35:21;;;;;;;19.30;7.78;;;;;;;;;;10408046;28;20256;-69
2022/04/10 00:40:25;;;;;;;14.43;8.45;;;;;;;;;;10435370;28;20236;-68
2022/04/10 00:45:28;;;;;;;13.15;7.53;;;;;;;;;;10449149;28;20041;-67
2022/04/10 00:50:32;;;;;;;13.48;8.20;;;;;;;;;;10435053;28;20091;-68
2022/04/10 00:55:36;;;;;;;16.55;8.93;;;;;;;;;;10434890;28;20049;-67
2022/04/10 01:00:38;;;;;;;17.80;8.73;;;;;;;;;;10437574;28;20332;-68
2022/04/10 01:05:43;;;;;;;18.23;8.57;;;;;;;;;;10451398;28;20103;-68
2022/04/10 01:10:46;;;;;;;14.18;7.88;;;;;;;;;;10435452;28;20048;-68
2022/04/10 01:15:49;;;;;;;12.50;7.93;;;;;;;;;;10471171;28;20053;-67
2022/04/10 01:20:53;;;;;;;17.00;7.15;;;;;;;;;;10432265;28;20049;-67
2022/04/10 01:25:56;;;;;;;15.18;7.78;;;;;;;;;;10432121;28;20064;-67
2022/04/10 01:30:58;;;;;;;15.85;7.63;;;;;;;;;;10432178;28;20041;-68
2022/04/10 01:36:02;;;;;;;20.98;7.63;;;;;;;;;;10433573;28;20376;-68
2022/04/10 01:41:05;;;;;;;14.68;7.13;;;;;;;;;;10433185;28;20049;-67
2022/04/10 01:46:08;;;;;;;14.73;7.25;;;;;;;;;;10432076;28;20275;-68
2022/04/10 01:51:10;;;;;;;11.60;6.85;;;;;;;;;;10433861;28;20048;-67
2022/04/10 01:56:14;;;;;;;14.00;6.90;;;;;;;;;;10437354;28;20053;-68
2022/04/10 02:01:17;;;;;;;16.70;7.15;;;;;;;;;;10440047;28;20049;-67
2022/04/10 02:06:20;;;;;;;10.20;5.95;;;;;;;;;;10442168;28;20355;-67
2022/04/10 02:11:24;;;;;;;13.32;5.72;;;;;;;;;;10442443;28;20049;-67
2022/04/10 02:16:26;;;;;;;10.70;5.68;;;;;;;;;;10440864;28;20351;-68
2022/04/10 02:21:29;;;;;;;17.10;6.00;;;;;;;;;;10441214;28;20042;-67
2022/04/10 02:26:33;;;;;;;11.25;5.72;;;;;;;;;;10441911;28;20052;-68
2022/04/10 02:31:36;;;;;;;12.13;5.57;;;;;;;;;;10440925;28;20041;-67
2022/04/10 02:36:39;;;;;;;16.38;5.43;;;;;;;;;;10439430;28;20061;-69
2022/04/10 02:41:42;;;;;;;12.77;4.90;;;;;;;;;;10440167;28;20048;-67
2022/04/10 02:46:45;;;;;;;14.13;4.93;;;;;;;;;;10440322;28;20061;-68
2022/04/10 02:51:49;;;;;;;12.18;5.18;;;;;;;;;;10439095;28;20076;-67
2022/04/10 02:56:53;;;;;;;14.80;5.32;;;;;;;;;;10466071;28;20247;-67
2022/04/10 03:01:55;;;;;;;10.50;4.93;;;;;;;;;;10481764;28;20048;-67
2022/04/10 03:06:57;;;;;;;9.43;4.78;;;;;;;;;;10460651;28;20283;-68
2022/04/10 03:12:03;;;;;;;10.07;4.50;;;;;;;;;;10437850;28;20051;-68
2022/04/10 03:17:06;;;;;;;10.23;4.70;;;;;;;;;;10458233;28;20045;-68
2022/04/10 03:22:09;;;;;;;7.75;4.00;;;;;;;;;;10459676;28;20041;-68
2022/04/10 03:27:12;;;;;;;9.27;4.75;;;;;;;;;;10437350;28;20272;-67
2022/04/10 03:32:15;;;;;;;10.15;4.90;;;;;;;;;;10437459;28;20111;-69
2022/04/10 03:37:18;;;;;;;13.35;5.13;;;;;;;;;;10440779;28;20367;-68
2022/04/10 03:42:22;;;;;;;14.80;4.90;;;;;;;;;;10438751;28;20041;-68
2022/04/10 03:47:24;;;;;;;9.82;5.68;;;;;;;;;;10435552;28;20048;-68
2022/04/10 03:52:26;;;;;;;11.55;4.85;;;;;;;;;;10438236;28;20065;-68
2022/04/10 03:57:30;;;;;;;15.63;5.05;;;;;;;;;;10437670;28;20103;-68
2022/04/10 04:02:32;;;;;;;11.50;4.50;;;;;;;;;;10442882;28;20063;-67
2022/04/10 04:07:34;;;;;;;8.25;4.57;;;;;;;;;;10477936;28;20049;-67
2022/04/10 04:12:38;;;;;;;9.23;4.40;;;;;;;;;;10477393;28;20232;-68
2022/04/10 04:17:40;;;;;;;7.05;4.68;;;;;;;;;;10451548;28;20044;-68
2022/04/10 04:22:43;;;;;;;12.40;4.47;;;;;;;;;;10438524;28;20240;-67
2022/04/10 04:27:47;;;;;;;11.88;4.63;;;;;;;;;;10434545;28;20072;-68
2022/04/10 04:32:50;;;;;;;13.00;4.20;;;;;;;;;;10434388;28;20395;-67
2022/04/10 04:37:54;;;;;;;10.88;4.10;;;;;;;;;;10432950;28;20053;-68
2022/04/10 04:42:57;;;;;;;9.10;4.22;;;;;;;;;;10437091;28;20041;-68
2022/04/10 04:48:00;;;;;;;8.48;3.97;;;;;;;;;;10400938;28;20646;-68
2022/04/10 04:53:02;;;;;;;9.57;3.90;;;;;;;;;;10433906;28;20049;-68
2022/04/10 04:58:06;;;;;;;11.07;4.30;;;;;;;;;;10433336;28;20041;-68
2022/04/10 05:03:08;;;;;;;9.32;4.22;;;;;;;;;;10432062;28;20310;-71
2022/04/10 05:08:10;;;;;;;8.93;3.88;;;;;;;;;;10433616;28;20077;-70
2022/04/10 05:13:14;;;;;;;10.52;3.90;;;;;;;;;;10426019;28;20197;-69
2022/04/10 05:18:17;;;;;;;11.40;3.97;;;;;;;;;;10434609;28;20073;-70
2022/04/10 05:23:21;;;;;;;9.75;3.30;;;;;;;;;;10426163;28;20336;-67
2022/04/10 05:28:25;;;;;;;5.93;3.30;;;;;;;;;;10431131;28;20049;-67
2022/04/10 05:33:27;;;;;;;8.32;3.80;;;;;;;;;;10432539;28;20384;-71
2022/04/10 05:38:30;;;;;;;9.18;4.10;;;;;;;;;;10424517;28;20325;-72
2022/04/10 05:43:33;;;;;;;10.57;4.60;;;;;;;;;;10429644;28;20060;-70
2022/04/10 05:48:36;;;;;;;12.07;5.63;;;;;;;;;;10416813;28;20049;-72
2022/04/10 05:53:38;;;;;;;8.82;5.47;;;;;;;;;;10431322;28;20107;-70
2022/04/10 05:58:42;;;;;;;10.65;4.30;;;;;;;;;;10418609;28;20053;-70
2022/04/10 06:03:44;;;;;;;7.18;4.43;;;;;;;;;;10424967;28;20095;-71
2022/04/10 06:08:46;;;;;;;11.68;4.47;;;;;;;;;;10422719;28;20056;-68
2022/04/10 06:13:50;;;;;;;8.75;5.10;;;;;;;;;;10430114;28;20073;-68
2022/04/10 06:18:52;;;;;;;12.30;4.80;;;;;;;;;;10431764;28;20053;-71
2022/04/10 06:23:55;;;;;;;7.03;3.47;;;;;;;;;;10420079;28;20069;-69
2022/04/10 06:28:59;;;;;;;11.43;4.85;;;;;;;;;;10400386;28;20042;-73
2022/04/10 06:34:01;;;;;;;11.25;5.15;;;;;;;;;;10430952;28;20328;-69
2022/04/10 06:39:04;;;;;;;9.38;4.13;;;;;;;;;;10427373;28;20068;-69
2022/04/10 06:44:08;;;;;;;10.70;4.80;;;;;;;;;;10435241;28;20069;-73
2022/04/10 06:49:12;;;;;;;10.98;3.25;;;;;;;;;;10432999;28;20077;-73
2022/04/10 06:54:14;;;;;;;8.80;3.67;;;;;;;;;;10436789;28;20071;-70
2022/04/10 06:59:17;;;;;;;10.23;4.75;;;;;;;;;;10415122;28;20336;-73
2022/04/10 07:04:20;;;;;;;5.30;2.80;;;;;;;;;;10433860;28;20375;-71
2022/04/10 07:09:22;;;;;;;6.53;3.10;;;;;;;;;;10436344;28;20248;-71
2022/04/10 07:14:29;;;;;;;4.93;2.88;;;;;;;;;;10436703;28;20044;-71
2022/04/10 07:19:31;;;;;;;6.90;2.83;;;;;;;;;;10440174;28;20053;-70
2022/04/10 07:24:34;;;;;;;10.43;5.80;;;;;;;;;;10434042;28;20072;-70
2022/04/10 07:29:38;;;;;;;7.78;4.00;;;;;;;;;;10426765;28;20336;-72
2022/04/10 07:34:41;;;;;;;6.10;3.78;;;;;;;;;;10434284;28;20057;-73
2022/04/10 07:39:44;;;;;;;17.60;5.07;;;;;;;;;;10434788;28;20057;-72
2022/04/10 07:44:48;;;;;;;53.78;17.77;;;;;;;;;;10435902;28;20375;-71
2022/04/10 07:49:50;;;;;;;11.45;4.68;;;;;;;;;;10444596;28;20052;-71
2022/04/10 07:54:53;;;;;;;11.33;4.43;;;;;;;;;;10460650;28;20057;-72
2022/04/10 07:59:57;;;;;;;12.37;5.13;;;;;;;;;;10435026;28;20053;-73
2022/04/10 08:04:59;;;;;;;12.60;4.40;;;;;;;;;;10435234;28;20042;-73
2022/04/10 08:10:01;;;;;;;15.57;5.82;;;;;;;;;;10440766;28;20052;-71
2022/04/10 08:15:07;;;;;;;15.32;5.88;;;;;;;;;;10475801;28;20044;-72
2022/04/10 08:20:12;;;;;;;10.48;4.90;;;;;;;;;;10459811;28;20044;-72
2022/04/10 08:25:16;;;;;;;11.65;3.85;;;;;;;;;;10446675;28;20180;-73
2022/04/10 08:30:20;;;;;;;8.80;3.53;;;;;;;;;;10433589;28;20041;-74
2022/04/10 08:35:23;;;;;;;6.45;2.90;;;;;;;;;;10433575;28;20053;-74
2022/04/10 08:40:26;;;;;;;6.13;2.75;;;;;;;;;;10447363;28;20095;-73
2022/04/10 08:45:30;;;;;;;7.85;3.00;;;;;;;;;;10433246;28;20115;-72
2022/04/10 08:50:33;;;;;;;13.40;3.00;;;;;;;;;;10430076;28;20095;-72
2022/04/10 08:55:36;;;;;;;7.95;2.70;;;;;;;;;;10405731;28;20060;-73
2022/04/10 09:00:42;;;;;;;8.37;3.20;;;;;;;;;;10422723;28;20348;-72
2022/04/10 09:06:02;;;;;;;8.07;3.00;;;;;;;;;;10433089;28;20345;-74
2022/04/10 09:11:06;;;;;;;9.63;3.58;;;;;;;;;;10421561;28;20041;-74
2022/04/10 09:16:13;;;;;;;10.00;4.00;;;;;;;;;;10436725;28;20038;-74
2022/04/10 09:21:18;;;;;;;9.45;3.50;;;;;;;;;;10410350;28;20056;-74
2022/04/10 09:26:20;;;;;;;8.83;3.40;;;;;;;;;;10409750;28;20065;-71
2022/04/10 09:31:29;;;;;;;7.80;4.05;;;;;;;;;;10432018;28;20065;-73
2022/04/10 09:36:37;;;;;;;7.38;3.30;;;;;;;;;;10430947;28;20037;-71
2022/04/10 09:41:41;;;;;;;11.48;3.47;;;;;;;;;;10445985;28;20049;-72
2022/04/10 09:46:57;;;;;;;13.85;4.20;;;;;;;;;;10408309;28;20156;-72
2022/04/10 09:52:05;;;;;;;10.75;3.60;;;;;;;;;;10445025;28;20041;-73
2022/04/10 09:57:11;;;;;;;7.57;3.35;;;;;;;;;;10435809;28;20053;-73
2022/04/10 10:02:16;;;;;;;7.78;3.42;;;;;;;;;;10457745;28;20351;-70
2022/04/10 10:07:20;;;;;;;12.18;3.55;;;;;;;;;;10431272;28;20053;-74
2022/04/10 10:12:23;;;;;;;12.05;4.20;;;;;;;;;;10422708;28;20325;-73
2022/04/10 10:17:27;;;;;;;11.20;4.10;;;;;;;;;;10426594;28;20084;-72
2022/04/10 10:22:30;;;;;;;15.83;6.27;;;;;;;;;;10440173;28;20052;-74
2022/04/10 10:28:01;;;;;;;10.00;4.68;;;;;;;;;;10429916;28;20329;-72
2022/04/10 10:33:16;;;;;;;6.88;2.80;;;;;;;;;;10454088;28;20060;-72
2022/04/10 10:38:20;;;;;;;6.43;3.25;;;;;;;;;;10443224;28;20060;-72
2022/04/10 10:43:24;;;;;;;5.93;3.30;;;;;;;;;;10439574;28;20033;-72
2022/04/10 10:48:38;;;;;;;7.93;3.80;;;;;;;;;;10435327;28;20050;-72
2022/04/10 10:53:42;;;;;;;9.03;4.00;;;;;;;;;;10441234;28;20052;-74
2022/04/10 10:58:45;;;;;;;7.40;4.20;;;;;;;;;;10436303;28;20232;-70
2022/04/10 11:04:02;;;;;;;9.63;4.40;;;;;;;;;;10438093;28;20294;-72
2022/04/10 11:09:21;;;;;;;7.07;3.67;;;;;;;;;;10438705;28;20248;-74
2022/04/10 11:14:39;;;;;;;6.25;2.78;;;;;;;;;;10437941;28;20041;-70
2022/04/10 11:19:45;;;;;;;7.75;3.50;;;;;;;;;;10437140;28;20080;-73
2022/04/10 11:24:51;;;;;;;9.20;3.10;;;;;;;;;;10442538;28;20185;-74
2022/04/10 11:30:03;;;;;;;5.97;2.80;;;;;;;;;;10393756;28;20050;-71
2022/04/10 11:35:15;;;;;;;8.15;3.50;;;;;;;;;;10399472;28;20082;-69
2022/04/10 11:40:24;;;;;;;7.60;3.72;;;;;;;;;;10422592;28;20390;-72
2022/04/10 11:45:27;;;;;;;9.15;3.50;;;;;;;;;;10449881;28;20063;-73
2022/04/10 11:50:33;;;;;;;9.27;3.70;;;;;;;;;;10435484;28;20343;-73
2022/04/10 11:55:38;;;;;;;7.65;3.70;;;;;;;;;;10450169;28;20057;-74
2022/04/10 12:00:45;;;;;;;11.98;4.13;;;;;;;;;;10435380;28;20065;-75
2022/04/10 12:05:50;;;;;;;9.70;3.83;;;;;;;;;;10435340;28;20072;-70
2022/04/10 12:10:55;;;;;;;8.50;3.40;;;;;;;;;;10436542;28;20328;-71
2022/04/10 12:16:01;;;;;;;13.20;4.80;;;;;;;;;;10434320;28;20065;-68
2022/04/10 12:21:05;;;;;;;10.77;3.70;;;;;;;;;;10432003;28;20291;-71
2022/04/10 12:26:08;;;;;;;8.05;3.83;;;;;;;;;;10435214;28;20049;-73
2022/04/10 12:31:11;;;;;;;7.30;3.20;;;;;;;;;;10434110;28;20371;-71
2022/04/10 12:36:19;;;;;;;10.18;3.67;;;;;;;;;;10433610;28;20377;-73
2022/04/10 12:41:28;;;;;;;6.72;3.35;;;;;;;;;;10445079;28;20041;-72
2022/04/10 12:46:40;;;;;;;6.63;3.28;;;;;;;;;;10433320;28;20068;-72
2022/04/10 12:51:54;;;;;;;8.32;3.92;;;;;;;;;;10446102;28;20045;-70
2022/04/10 12:56:56;;;;;;;4.75;3.33;;;;;;;;;;10447165;28;20132;-72
2022/04/10 13:01:59;;;;;;;7.20;4.07;;;;;;;;;;10433936;28;20045;-72
2022/04/10 13:07:03;;;;;;;4.80;3.30;;;;;;;;;;10431039;28;20049;-72
2022/04/10 13:12:06;;;;;;;4.70;2.75;;;;;;;;;;10433558;28;20053;-74
2022/04/10 13:17:08;;;;;;;6.82;2.90;;;;;;;;;;10431311;28;20038;-71
2022/04/10 13:22:12;;;;;;;6.72;2.95;;;;;;;;;;10431728;28;20061;-71
2022/04/10 13:27:16;;;;;;;7.32;3.38;;;;;;;;;;10433092;28;20237;-68
2022/04/10 13:32:19;;;;;;;7.15;3.05;;;;;;;;;;10432293;28;20080;-72
2022/04/10 13:37:23;;;;;;;6.03;2.70;;;;;;;;;;10430083;28;20065;-73
2022/04/10 13:42:25;;;;;;;8.25;3.35;;;;;;;;;;10433192;28;20107;-70
2022/04/10 13:47:28;;;;;;;8.10;3.25;;;;;;;;;;10430905;28;20049;-73
2022/04/10 13:52:32;;;;;;;7.97;3.72;;;;;;;;;;10436266;28;20041;-71
2022/04/10 13:57:34;;;;;;;11.70;3.53;;;;;;;;;;10439429;28;20041;-74
2022/04/10 14:02:36;;;;;;;13.60;3.83;;;;;;;;;;10440254;28;20057;-73
2022/04/10 14:07:40;;;;;;;11.52;3.55;;;;;;;;;;10439649;28;20099;-73
2022/04/10 14:12:42;;;;;;;12.05;6.63;;;;;;;;;;10439711;28;20049;-72
2022/04/10 14:17:45;;;;;;;8.88;3.45;;;;;;;;;;10408091;28;20061;-70
2022/04/10 14:22:49;;;;;;;7.10;3.38;;;;;;;;;;10427734;28;20041;-70
2022/04/10 14:27:51;;;;;;;8.30;4.43;;;;;;;;;;10438713;28;20077;-70
2022/04/10 14:32:54;;;;;;;7.78;3.03;;;;;;;;;;10439802;28;20061;-73
2022/04/10 14:37:59;;;;;;;8.13;3.95;;;;;;;;;;10437233;28;20356;-72
2022/04/10 14:43:01;;;;;;;6.38;3.33;;;;;;;;;;10438538;28;20061;-72
2022/04/10 14:48:04;;;;;;;8.30;3.67;;;;;;;;;;10437037;28;20052;-75
2022/04/10 14:53:09;;;;;;;7.50;4.00;;;;;;;;;;10437042;28;20041;-76
2022/04/10 14:58:11;;;;;;;6.88;3.08;;;;;;;;;;10410906;28;20053;-70
2022/04/10 15:03:14;;;;;;;5.40;2.95;;;;;;;;;;10435553;28;20293;-70
2022/04/10 15:08:18;;;;;;;8.05;3.80;;;;;;;;;;10436492;28;20239;-73
2022/04/10 15:13:20;;;;;;;29.42;5.20;;;;;;;;;;10428131;28;20177;-71
2022/04/10 15:18:23;;;;;;;7.78;4.40;;;;;;;;;;10436681;28;20340;-74
2022/04/10 15:23:28;;;;;;;9.70;4.40;;;;;;;;;;10436722;28;20072;-74
2022/04/10 15:28:32;;;;;;;5.57;3.58;;;;;;;;;;10437308;28;20048;-70
2022/04/10 15:33:34;;;;;;;7.90;4.20;;;;;;;;;;10434229;28;20056;-70
2022/04/10 15:38:40;;;;;;;6.07;3.47;;;;;;;;;;10437543;28;20065;-72
2022/04/10 15:43:43;;;;;;;4.40;3.28;;;;;;;;;;10436104;28;20056;-73
2022/04/10 15:48:49;;;;;;;4.55;3.13;;;;;;;;;;10435364;28;20244;-74
2022/04/10 15:53:53;;;;;;;6.00;3.50;;;;;;;;;;10450854;28;20116;-74
2022/04/10 15:58:56;;;;;;;7.13;4.53;;;;;;;;;;10435366;28;20076;-75
2022/04/10 16:03:58;;;;;;;7.38;4.45;;;;;;;;;;10435758;28;20108;-73
2022/04/10 16:09:02;;;;;;;5.93;3.88;;;;;;;;;;10434070;28;20053;-73
2022/04/10 16:14:04;;;;;;;6.70;3.97;;;;;;;;;;10435674;28;20048;-71
2022/04/10 16:19:07;;;;;;;9.20;5.45;;;;;;;;;;10434702;28;20352;-70
2022/04/10 16:24:11;;;;;;;13.10;8.43;;;;;;;;;;10435075;28;20049;-72
2022/04/10 16:34:34;;;;;;;10.90;5.72;;;;;;;;;;10439010;28;20042;-71
2022/04/10 16:39:38;;;;;;;7.00;4.28;;;;;;;;;;10433465;28;20069;-72
2022/04/10 16:44:40;;;;;;;5.43;3.35;;;;;;;;;;10431502;28;20068;-71
2022/04/10 16:49:42;;;;;;;7.00;3.90;;;;;;;;;;10435055;28;20048;-73
2022/04/10 16:54:50;;;;;;;10.07;4.90;;;;;;;;;;10434036;28;20071;-73
2022/04/10 16:59:54;;;;;;;17.08;8.57;;;;;;;;;;10432819;28;20244;-70
2022/04/10 17:04:56;;;;;;;51.03;15.15;;;;;;;;;;10434053;28;20079;-73
2022/04/10 17:10:01;;;;;;;63.55;17.88;;;;;;;;;;10427680;28;20052;-74
2022/04/10 17:15:05;;;;;;;24.48;9.32;;;;;;;;;;10434197;28;20292;-74
2022/04/10 17:20:09;;;;;;;18.20;7.80;;;;;;;;;;10408954;28;20049;-72
2022/04/10 17:25:14;;;;;;;10.40;6.32;;;;;;;;;;10412648;28;20064;-73
2022/04/10 17:30:17;;;;;;;15.80;6.68;;;;;;;;;;10431723;28;20045;-70
2022/04/10 17:35:20;;;;;;;12.57;6.57;;;;;;;;;;10432252;28;20057;-73
2022/04/10 17:40:23;;;;;;;14.85;11.80;;;;;;;;;;10433099;28;20351;-73
2022/04/10 17:45:26;;;;;;;16.58;12.25;;;;;;;;;;10431980;28;20064;-72
2022/04/10 17:50:28;;;;;;;20.83;12.93;;;;;;;;;;10431643;28;20232;-72
2022/04/10 17:55:32;;;;;;;17.05;14.85;;;;;;;;;;10433622;28;20148;-73
2022/04/10 18:00:35;;;;;;;22.67;11.98;;;;;;;;;;10431248;28;20053;-73
2022/04/10 18:05:37;;;;;;;12.93;7.35;;;;;;;;;;10433777;28;20057;-73
2022/04/10 18:10:41;;;;;;;14.60;7.90;;;;;;;;;;10431985;28;20109;-71
2022/04/10 18:15:43;;;;;;;18.10;8.05;;;;;;;;;;10432500;28;20045;-70
2022/04/10 18:20:46;;;;;;;22.30;10.05;;;;;;;;;;10425868;28;20059;-72
2022/04/10 18:25:50;;;;;;;27.10;10.70;;;;;;;;;;10429342;28;20041;-72
2022/04/10 18:30:52;;;;;;;23.23;10.02;;;;;;;;;;10431243;28;20281;-70
2022/04/10 18:35:57;;;;;;;17.42;8.13;;;;;;;;;;10431431;28;20064;-72
2022/04/10 18:41:02;;;;;;;15.73;7.63;;;;;;;;;;10435208;28;20337;-72
2022/04/10 18:46:07;;;;;;;17.30;8.05;;;;;;;;;;10449174;28;20049;-72
2022/04/10 18:51:10;;;;;;;20.77;8.70;;;;;;;;;;10438406;28;20220;-74
2022/04/10 18:56:13;;;;;;;18.70;7.90;;;;;;;;;;10439626;28;20057;-73
2022/04/10 19:01:16;;;;;;;11.77;6.55;;;;;;;;;;10438081;28;20045;-70
2022/04/10 19:06:18;;;;;;;14.85;6.88;;;;;;;;;;10439043;28;20045;-70
2022/04/10 19:11:25;;;;;;;18.42;8.02;;;;;;;;;;10424358;28;20052;-73
2022/04/10 19:16:27;;;;;;;21.73;9.63;;;;;;;;;;10471390;28;20041;-72
2022/04/10 19:21:30;;;;;;;18.42;9.15;;;;;;;;;;10473415;28;20044;-73
2022/04/10 19:26:34;;;;;;;35.35;13.95;;;;;;;;;;10453785;28;20276;-73
2022/04/10 19:31:37;;;;;;;33.95;13.68;;;;;;;;;;10436776;28;20067;-73
2022/04/10 19:36:42;;;;;;;24.05;12.40;;;;;;;;;;10448763;28;20071;-73
2022/04/10 19:41:47;;;;;;;20.17;9.95;;;;;;;;;;10472631;28;20107;-73
2022/04/10 19:46:49;;;;;;;16.55;7.32;;;;;;;;;;10438811;28;20087;-74
2022/04/10 19:51:52;;;;;;;16.35;8.20;;;;;;;;;;10436118;28;20386;-74
2022/04/10 19:56:56;;;;;;;13.40;7.32;;;;;;;;;;10437006;28;20049;-71
2022/04/10 20:01:59;;;;;;;11.98;6.38;;;;;;;;;;10436408;28;20037;-70
2022/04/10 20:07:02;;;;;;;11.32;5.95;;;;;;;;;;10438303;28;20092;-70
2022/04/10 20:12:08;;;;;;;10.60;5.65;;;;;;;;;;10434880;28;20041;-70
2022/04/10 20:17:11;;;;;;;12.55;6.38;;;;;;;;;;10435547;28;20045;-69
2022/04/10 20:22:16;;;;;;;11.95;6.53;;;;;;;;;;10440077;28;20354;-72
2022/04/10 20:27:20;;;;;;;13.95;6.72;;;;;;;;;;10474942;28;20045;-74
2022/04/10 20:32:25;;;;;;;13.02;7.55;;;;;;;;;;10434365;28;20272;-74
2022/04/10 20:37:28;;;;;;;18.77;9.65;;;;;;;;;;10433418;28;20264;-71
2022/04/10 20:42:31;;;;;;;25.08;11.25;;;;;;;;;;10434873;28;20350;-73
2022/04/10 20:47:38;;;;;;;27.85;13.85;;;;;;;;;;10443171;28;20055;-75
2022/04/10 20:52:42;;;;;;;32.77;14.93;;;;;;;;;;10437101;28;20355;-72
2022/04/10 20:57:46;;;;;;;39.80;21.65;;;;;;;;;;10431950;28;20123;-70
2022/04/10 21:02:49;;;;;;;36.22;22.80;;;;;;;;;;10432960;28;20065;-74
2022/04/10 21:07:53;;;;;;;38.63;24.30;;;;;;;;;;10432370;28;20049;-73
2022/04/10 21:12:57;;;;;;;35.83;23.65;;;;;;;;;;10440513;28;20236;-74
2022/04/10 21:17:59;;;;;;;33.75;17.35;;;;;;;;;;10434976;28;20108;-71
2022/04/10 21:23:02;;;;;;;35.28;15.52;;;;;;;;;;10433582;28;20084;-71
2022/04/10 21:28:06;;;;;;;36.00;14.40;;;;;;;;;;10431787;28;20156;-71
2022/04/10 21:33:10;;;;;;;30.52;12.23;;;;;;;;;;10430741;28;20057;-73
2022/04/10 21:38:13;;;;;;;27.02;11.45;;;;;;;;;;10430850;28;20085;-71
2022/04/10 21:43:16;;;;;;;32.97;11.13;;;;;;;;;;10431225;28;20370;-69
2022/04/10 21:48:19;;;;;;;25.92;13.02;;;;;;;;;;10455419;28;20045;-74
2022/04/10 21:53:21;;;;;;;28.50;12.40;;;;;;;;;;10459675;28;20064;-74
2022/04/10 21:58:25;;;;;;;22.45;11.63;;;;;;;;;;10431944;28;20048;-73
2022/04/10 22:03:28;;;;;;;20.15;9.93;;;;;;;;;;10430661;28;20233;-70
2022/04/10 22:08:30;;;;;;;20.75;10.13;;;;;;;;;;10447577;28;20269;-69
2022/04/10 22:13:34;;;;;;;26.92;9.98;;;;;;;;;;10433982;28;20045;-72
2022/04/10 22:18:37;;;;;;;17.48;9.68;;;;;;;;;;10440377;28;20064;-70
2022/04/10 22:23:40;;;;;;;19.75;10.57;;;;;;;;;;10460060;28;20045;-72
2022/04/10 22:28:44;;;;;;;20.33;10.18;;;;;;;;;;10472366;28;20053;-69
2022/04/10 22:33:47;;;;;;;17.02;9.45;;;;;;;;;;10439924;28;20041;-75
2022/04/10 22:38:50;;;;;;;17.75;9.88;;;;;;;;;;10439341;28;20065;-73
2022/04/10 22:43:54;;;;;;;23.10;11.70;;;;;;;;;;10438354;28;20248;-74
2022/04/10 22:48:57;;;;;;;16.88;10.60;;;;;;;;;;10447804;28;20099;-72
2022/04/10 22:53:59;;;;;;;19.27;10.05;;;;;;;;;;10458570;28;20045;-69
2022/04/10 22:59:03;;;;;;;19.45;10.38;;;;;;;;;;10462530;28;20336;-70
2022/04/10 23:04:06;;;;;;;22.52;16.70;;;;;;;;;;10437773;28;20053;-71
2022/04/10 23:09:08;;;;;;;25.13;15.35;;;;;;;;;;10438129;28;20049;-72
2022/04/10 23:14:12;;;;;;;20.50;13.02;;;;;;;;;;10438948;28;20045;-72
2022/04/10 23:19:14;;;;;;;17.65;10.38;;;;;;;;;;10437809;28;20275;-71
2022/04/10 23:24:17;;;;;;;17.63;11.55;;;;;;;;;;10452871;28;20087;-71
2022/04/10 23:29:21;;;;;;;22.25;14.32;;;;;;;;;;10449615;28;20156;-71
2022/04/10 23:34:23;;;;;;;18.20;10.88;;;;;;;;;;10437732;28;20042;-71
2022/04/10 23:39:26;;;;;;;15.57;10.60;;;;;;;;;;10434978;28;20073;-71
2022/04/10 23:44:30;;;;;;;15.50;9.73;;;;;;;;;;10436905;28;20226;-71
2022/04/10 23:49:32;;;;;;;13.95;7.63;;;;;;;;;;10437059;28;20375;-71
2022/04/10 23:54:35;;;;;;;14.40;8.48;;;;;;;;;;10433549;28;20057;-72
2022/04/10 23:59:38;;;;;;;13.48;8.20;;;;;;;;;;10434856;28;20087;-71
